createdAt,value
2022-11-13T00:02:03.889Z,12.32
2022-11-13T00:04:32.810Z,13.05
2022-11-13T00:07:00.384Z,12.07
2022-11-13T00:09:27.915Z,12.48
2022-11-13T00:11:55.413Z,12.00
2022-11-13T00:14:22.900Z,13.10
2022-11-13T00:16:50.413Z,12.30
2022-11-13T00:19:17.998Z,11.20
2022-11-13T00:21:46.811Z,11.73
2022-11-13T00:24:14.312Z,11.95
2022-11-13T00:26:42.886Z,12.85
2022-11-13T00:29:10.381Z,12.43
2022-11-13T00:31:37.845Z,12.52
2022-11-13T00:34:20.018Z,12.27
2022-11-13T00:36:54.189Z,11.85
2022-11-13T00:39:21.637Z,11.82
2022-11-13T00:41:49.116Z,11.85
2022-11-13T00:44:16.545Z,11.63
2022-11-13T00:46:44.161Z,11.50
2022-11-13T00:49:13.068Z,11.90
2022-11-13T00:51:40.537Z,11.40
2022-11-13T00:54:09.367Z,11.75
2022-11-13T00:56:36.831Z,12.00
2022-11-13T00:59:04.318Z,11.90
2022-11-13T01:01:31.891Z,10.85
2022-11-13T01:03:59.462Z,11.13
2022-11-13T01:06:28.077Z,11.43
2022-11-13T01:08:55.723Z,10.60
2022-11-13T01:11:25.802Z,10.38
2022-11-13T01:13:53.662Z,10.57
2022-11-13T01:16:22.149Z,10.43
2022-11-13T01:18:49.877Z,10.43
2022-11-13T01:21:18.444Z,11.10
2022-11-13T01:23:45.925Z,10.65
2022-11-13T01:26:14.932Z,10.65
2022-11-13T01:28:44.200Z,10.80
2022-11-13T01:31:12.874Z,10.55
2022-11-13T01:33:40.624Z,11.10
2022-11-13T01:36:09.459Z,10.60
2022-11-13T01:38:37.628Z,11.07
2022-11-13T01:41:05.528Z,11.65
2022-11-13T01:43:33.935Z,10.13
2022-11-13T01:46:17.091Z,10.77
2022-11-13T01:48:46.357Z,10.95
2022-11-13T01:51:14.979Z,10.88
2022-11-13T01:53:44.740Z,10.25
2022-11-13T01:56:12.569Z,10.45
2022-11-13T01:58:40.792Z,9.38
2022-11-13T02:01:08.330Z,9.60
2022-11-13T02:03:37.242Z,9.35
2022-11-13T02:06:04.967Z,9.25
2022-11-13T02:08:32.605Z,8.80
2022-11-13T02:11:00.153Z,8.68
2022-11-13T02:13:27.669Z,8.80
2022-11-13T02:15:55.912Z,8.27
2022-11-13T02:18:23.792Z,8.38
2022-11-13T02:20:57.348Z,8.38
2022-11-13T02:23:29.456Z,8.07
2022-11-13T02:25:59.035Z,7.68
2022-11-13T02:28:26.940Z,7.45
2022-11-13T02:30:54.656Z,7.18
2022-11-13T02:33:25.058Z,7.60
2022-11-13T02:35:52.903Z,7.90
2022-11-13T02:38:20.517Z,7.05
2022-11-13T02:40:48.129Z,7.60
2022-11-13T02:43:17.010Z,7.82
2022-11-13T02:45:44.515Z,7.22
2022-11-13T02:48:12.020Z,7.32
2022-11-13T02:50:39.575Z,7.28
2022-11-13T02:53:07.525Z,6.90
2022-11-13T02:55:35.004Z,7.55
2022-11-13T02:58:02.504Z,7.10
2022-11-13T03:00:31.353Z,7.15
2022-11-13T03:02:58.836Z,6.68
2022-11-13T03:05:26.341Z,7.05
2022-11-13T03:07:53.799Z,6.63
2022-11-13T03:10:21.278Z,7.78
2022-11-13T03:12:48.792Z,6.95
2022-11-13T03:15:16.498Z,6.53
2022-11-13T03:17:45.336Z,6.57
2022-11-13T03:20:12.894Z,5.95
2022-11-13T03:22:40.394Z,6.53
2022-11-13T03:25:10.692Z,6.38
2022-11-13T03:27:38.743Z,6.13
2022-11-13T03:30:06.864Z,6.55
2022-11-13T03:32:34.314Z,6.47
2022-11-13T03:35:03.226Z,6.47
2022-11-13T03:37:30.706Z,6.30
2022-11-13T03:39:58.226Z,6.65
2022-11-13T03:42:25.698Z,6.32
2022-11-13T03:44:53.156Z,6.05
2022-11-13T03:47:20.613Z,6.75
2022-11-13T03:49:48.075Z,6.35
2022-11-13T03:52:16.952Z,6.72
2022-11-13T03:54:44.462Z,6.93
2022-11-13T03:57:11.967Z,6.97
2022-11-13T03:59:39.430Z,7.43
2022-11-13T04:02:06.976Z,6.80
2022-11-13T04:04:34.477Z,6.93
2022-11-13T04:07:02.051Z,6.80
2022-11-13T04:09:30.952Z,7.05
2022-11-13T04:11:58.441Z,7.28
2022-11-13T04:14:25.903Z,7.03
2022-11-13T04:16:53.381Z,7.63
2022-11-13T04:19:20.921Z,7.35
2022-11-13T04:21:48.410Z,7.35
2022-11-13T04:24:15.891Z,7.90
2022-11-13T04:26:44.738Z,7.40
2022-11-13T04:29:12.228Z,8.05
2022-11-13T04:31:39.702Z,6.75
2022-11-13T04:34:07.123Z,6.80
2022-11-13T04:36:34.925Z,6.80
2022-11-13T04:39:02.421Z,6.78
2022-11-13T04:41:59.055Z,6.57
2022-11-13T04:44:27.902Z,6.13
2022-11-13T04:46:55.719Z,6.25
2022-11-13T04:49:23.245Z,6.18
2022-11-13T04:51:50.749Z,6.57
2022-11-13T04:54:18.276Z,6.05
2022-11-13T04:56:45.780Z,7.40
2022-11-13T04:59:13.233Z,6.35
2022-11-13T05:01:42.083Z,6.80
2022-11-13T05:04:11.662Z,5.88
2022-11-13T05:06:39.329Z,6.13
2022-11-13T05:09:06.836Z,6.03
2022-11-13T05:11:34.310Z,6.15
2022-11-13T05:14:03.645Z,5.90
2022-11-13T05:16:31.582Z,6.55
2022-11-13T05:19:00.417Z,6.38
2022-11-13T05:21:27.873Z,6.28
2022-11-13T05:23:55.351Z,7.22
2022-11-13T05:26:22.890Z,6.60
2022-11-13T05:28:50.373Z,6.47
2022-11-13T05:31:17.894Z,7.10
2022-11-13T05:33:45.405Z,6.68
2022-11-13T05:36:14.967Z,7.10
2022-11-13T05:38:42.905Z,7.13
2022-11-13T05:41:11.182Z,7.18
2022-11-13T05:43:39.016Z,7.15
2022-11-13T05:46:07.704Z,7.40
2022-11-13T05:48:35.817Z,7.55
2022-11-13T05:51:03.669Z,7.65
2022-11-13T05:53:33.821Z,8.05
2022-11-13T05:56:01.858Z,7.80
2022-11-13T05:58:30.186Z,9.02
2022-11-13T06:01:06.040Z,8.13
2022-11-13T06:03:33.524Z,7.60
2022-11-13T06:06:01.062Z,8.10
2022-11-13T06:08:28.831Z,7.78
2022-11-13T06:11:01.284Z,8.15
2022-11-13T06:13:28.882Z,8.10
2022-11-13T06:16:00.837Z,7.43
2022-11-13T06:18:28.795Z,8.00
2022-11-13T06:20:56.686Z,7.78
2022-11-13T06:23:24.135Z,8.23
2022-11-13T06:25:51.653Z,8.55
2022-11-13T06:28:20.492Z,8.27
2022-11-13T06:30:47.992Z,8.35
2022-11-13T06:33:15.433Z,8.95
2022-11-13T06:35:42.926Z,9.60
2022-11-13T06:38:10.389Z,8.95
2022-11-13T06:40:38.880Z,9.20
2022-11-13T06:43:06.354Z,9.38
2022-11-13T06:45:35.185Z,10.35
2022-11-13T06:48:02.668Z,10.98
2022-11-13T06:50:30.225Z,11.55
2022-11-13T06:52:58.255Z,11.63
2022-11-13T06:55:25.776Z,12.07
2022-11-13T06:57:53.306Z,12.02
2022-11-13T07:00:21.067Z,11.48
2022-11-13T07:02:51.060Z,11.10
2022-11-13T07:05:18.632Z,11.52
2022-11-13T07:07:46.068Z,12.00
2022-11-13T07:10:13.552Z,11.38
2022-11-13T07:12:41.423Z,11.43
2022-11-13T07:15:09.117Z,11.30
2022-11-13T07:17:36.555Z,11.05
2022-11-13T07:20:05.748Z,10.25
2022-11-13T07:22:33.239Z,10.18
2022-11-13T07:25:00.780Z,10.65
2022-11-13T07:27:28.282Z,11.02
2022-11-13T07:30:00.800Z,10.07
2022-11-13T07:32:30.772Z,9.93
2022-11-13T07:34:58.242Z,10.13
2022-11-13T07:37:28.091Z,9.40
2022-11-13T07:39:55.598Z,9.80
2022-11-13T07:42:23.104Z,9.43
2022-11-13T07:44:55.078Z,10.00
2022-11-13T07:47:23.190Z,8.95
2022-11-13T07:49:50.656Z,9.93
2022-11-13T07:52:18.304Z,8.68
2022-11-13T07:54:47.147Z,9.23
2022-11-13T07:57:14.775Z,9.60
2022-11-13T07:59:42.285Z,9.77
2022-11-13T08:02:11.919Z,9.77
2022-11-13T08:04:39.400Z,9.25
2022-11-13T08:07:06.883Z,9.43
2022-11-13T08:09:34.381Z,8.98
2022-11-13T08:12:03.192Z,9.75
2022-11-13T08:14:30.653Z,8.90
2022-11-13T08:16:58.134Z,8.80
2022-11-13T08:19:25.646Z,9.25
2022-11-13T08:21:53.141Z,8.63
2022-11-13T08:24:20.596Z,8.90
2022-11-13T08:26:48.058Z,8.15
2022-11-13T08:29:16.916Z,8.98
2022-11-13T08:31:44.425Z,8.38
2022-11-13T08:34:11.946Z,8.32
2022-11-13T08:36:39.430Z,8.70
2022-11-13T08:39:06.942Z,8.77
2022-11-13T08:41:34.396Z,8.85
2022-11-13T08:44:01.854Z,8.43
2022-11-13T08:46:30.721Z,8.73
2022-11-13T08:48:58.226Z,8.73
2022-11-13T08:51:25.782Z,8.43
2022-11-13T08:53:53.284Z,8.90
2022-11-13T08:56:20.861Z,8.43
2022-11-13T08:58:48.326Z,8.35
2022-11-13T09:01:16.833Z,8.25
2022-11-13T09:03:45.801Z,8.35
2022-11-13T09:06:13.321Z,8.10
2022-11-13T09:08:40.791Z,7.65
2022-11-13T09:11:08.310Z,7.72
2022-11-13T09:13:39.934Z,7.95
2022-11-13T09:16:10.330Z,8.18
2022-11-13T09:18:37.889Z,7.30
2022-11-13T09:21:06.981Z,6.85
2022-11-13T09:23:35.605Z,7.00
2022-11-13T09:26:03.597Z,6.72
2022-11-13T09:28:31.298Z,7.63
2022-11-13T09:30:59.171Z,6.65
2022-11-13T09:33:26.618Z,6.22
2022-11-13T09:35:54.139Z,6.40
2022-11-13T09:38:22.949Z,6.15
2022-11-13T09:40:53.277Z,6.88
2022-11-13T09:43:28.346Z,6.43
2022-11-13T09:45:57.346Z,6.18
2022-11-13T09:48:29.207Z,5.93
2022-11-13T09:50:57.524Z,6.05
2022-11-13T09:53:27.422Z,5.68
2022-11-13T09:55:58.457Z,6.20
2022-11-13T09:58:29.434Z,6.43
2022-11-13T10:00:59.254Z,5.68
2022-11-13T10:04:00.777Z,6.43
2022-11-13T10:06:23.050Z,6.55
2022-11-13T10:08:54.544Z,6.20
2022-11-13T10:11:25.766Z,6.10
2022-11-13T10:13:54.249Z,5.93
2022-11-13T10:16:28.054Z,5.53
2022-11-13T10:18:56.882Z,5.95
2022-11-13T10:21:30.588Z,6.40
2022-11-13T10:24:14.364Z,6.13
2022-11-13T10:26:42.080Z,6.28
2022-11-13T10:29:11.568Z,6.25
2022-11-13T10:31:42.951Z,5.80
2022-11-13T10:34:11.943Z,5.97
2022-11-13T10:36:43.277Z,6.07
2022-11-13T10:39:12.112Z,5.75
2022-11-13T10:41:47.022Z,6.10
2022-11-13T10:44:29.474Z,6.20
2022-11-13T10:47:06.706Z,6.43
2022-11-13T10:49:34.238Z,6.18
2022-11-13T10:52:02.258Z,6.07
2022-11-13T10:54:32.034Z,6.07
2022-11-13T10:57:00.814Z,6.55
2022-11-13T10:59:38.277Z,6.57
2022-11-13T11:02:19.038Z,7.22
2022-11-13T11:04:46.770Z,6.50
2022-11-13T11:07:20.689Z,6.20
2022-11-13T11:09:51.754Z,6.57
2022-11-13T11:12:19.260Z,5.63
2022-11-13T11:14:57.543Z,6.25
2022-11-13T11:17:32.644Z,6.32
2022-11-13T11:20:02.434Z,6.13
2022-11-13T11:22:31.977Z,6.18
2022-11-13T11:25:02.757Z,5.20
2022-11-13T11:27:34.066Z,5.35
2022-11-13T11:30:04.595Z,5.80
2022-11-13T11:32:34.750Z,5.65
2022-11-13T11:35:06.161Z,5.70
2022-11-13T11:37:36.735Z,5.85
2022-11-13T11:40:07.880Z,6.40
2022-11-13T11:42:38.874Z,6.97
2022-11-13T11:45:10.401Z,6.35
2022-11-13T11:47:37.962Z,6.38
2022-11-13T11:50:06.439Z,6.60
2022-11-13T11:52:41.038Z,6.90
2022-11-13T11:55:20.119Z,6.00
2022-11-13T11:57:51.075Z,6.05
2022-11-13T12:00:19.225Z,6.10
2022-11-13T12:03:03.649Z,6.25
2022-11-13T12:05:36.917Z,6.80
2022-11-13T12:08:09.890Z,6.78
2022-11-13T12:10:43.170Z,6.25
2022-11-13T12:13:15.471Z,6.07
2022-11-13T12:15:46.838Z,6.22
2022-11-13T12:18:16.907Z,6.85
2022-11-13T12:20:47.272Z,7.18
2022-11-13T12:23:25.283Z,6.38
2022-11-13T12:25:56.389Z,6.05
2022-11-13T12:28:30.494Z,6.45
2022-11-13T12:31:02.489Z,6.53
2022-11-13T12:33:33.963Z,6.68
2022-11-13T12:36:02.052Z,6.10
2022-11-13T12:38:34.341Z,6.88
2022-11-13T12:41:06.209Z,5.82
2022-11-13T12:43:48.865Z,5.85
2022-11-13T12:46:16.838Z,5.80
2022-11-13T12:48:44.900Z,5.70
2022-11-13T12:51:13.643Z,6.15
2022-11-13T12:53:45.802Z,6.00
2022-11-13T12:56:17.424Z,6.25
2022-11-13T12:59:15.371Z,6.22
2022-11-13T13:01:44.936Z,6.15
2022-11-13T13:04:29.685Z,5.97
2022-11-13T13:07:03.033Z,5.78
2022-11-13T13:09:37.149Z,5.43
2022-11-13T13:12:08.354Z,5.13
2022-11-13T13:14:42.082Z,5.60
2022-11-13T13:17:18.446Z,5.97
2022-11-13T13:19:46.236Z,5.47
2022-11-13T13:22:25.723Z,5.43
2022-11-13T13:24:59.507Z,5.45
2022-11-13T13:27:29.539Z,6.05
2022-11-13T13:29:58.435Z,5.70
2022-11-13T13:32:28.983Z,5.72
2022-11-13T13:35:00.394Z,6.50
2022-11-13T13:37:31.369Z,6.38
2022-11-13T13:40:03.717Z,6.20
2022-11-13T13:42:39.474Z,6.63
2022-11-13T13:45:12.317Z,6.40
2022-11-13T13:47:40.997Z,6.45
2022-11-13T13:50:09.621Z,6.60
2022-11-13T13:52:37.848Z,5.90
2022-11-13T13:55:06.483Z,6.30
2022-11-13T13:57:34.307Z,6.40
2022-11-13T14:00:03.222Z,6.07
2022-11-13T14:02:30.951Z,6.43
2022-11-13T14:04:58.403Z,6.38
2022-11-13T14:07:27.676Z,6.32
2022-11-13T14:10:08.708Z,6.30
2022-11-13T14:12:36.227Z,6.53
2022-11-13T14:15:06.785Z,5.95
2022-11-13T14:17:35.443Z,6.03
2022-11-13T14:20:02.896Z,5.82
2022-11-13T14:22:30.473Z,6.15
2022-11-13T14:24:59.093Z,6.43
2022-11-13T14:27:27.598Z,6.40
2022-11-13T14:29:56.636Z,5.80
2022-11-13T14:32:26.621Z,5.78
2022-11-13T14:34:56.070Z,5.30
2022-11-13T14:37:24.981Z,6.10
2022-11-13T14:39:53.095Z,6.35
2022-11-13T14:42:22.486Z,5.60
2022-11-13T14:44:49.963Z,5.38
2022-11-13T14:47:26.197Z,5.60
2022-11-13T14:49:53.725Z,6.18
2022-11-13T14:52:21.837Z,5.55
2022-11-13T14:55:15.272Z,5.85
2022-11-13T14:57:36.868Z,5.63
2022-11-13T15:00:11.769Z,5.95
2022-11-13T15:02:40.594Z,6.18
2022-11-13T15:05:08.292Z,6.28
2022-11-13T15:07:40.738Z,7.10
2022-11-13T15:10:10.310Z,7.22
2022-11-13T15:12:37.830Z,6.57
2022-11-13T15:15:05.597Z,7.03
2022-11-13T15:17:33.250Z,7.03
2022-11-13T15:20:05.426Z,8.98
2022-11-13T15:22:36.241Z,7.13
2022-11-13T15:25:03.718Z,7.55
2022-11-13T15:27:31.372Z,7.50
2022-11-13T15:29:58.843Z,7.38
2022-11-13T15:32:28.887Z,8.32
2022-11-13T15:34:56.341Z,8.20
2022-11-13T15:37:25.200Z,7.55
2022-11-13T15:39:53.233Z,7.95
2022-11-13T15:42:27.055Z,8.52
2022-11-13T15:44:54.553Z,8.38
2022-11-13T15:47:29.164Z,8.40
2022-11-13T15:50:12.870Z,8.77
2022-11-13T15:52:43.804Z,8.15
2022-11-13T15:55:31.878Z,9.00
2022-11-13T15:57:59.597Z,9.10
2022-11-13T16:00:28.218Z,8.95
2022-11-13T16:02:56.624Z,9.05
2022-11-13T16:05:25.533Z,9.45
2022-11-13T16:07:54.708Z,8.60
2022-11-13T16:10:22.568Z,9.20
2022-11-13T16:12:50.054Z,9.57
2022-11-13T16:15:18.091Z,9.65
2022-11-13T16:17:47.255Z,10.13
2022-11-13T16:20:16.637Z,10.70
2022-11-13T16:22:44.616Z,9.63
2022-11-13T16:25:14.283Z,9.77
2022-11-13T16:27:41.797Z,9.38
2022-11-13T16:30:14.135Z,10.38
2022-11-13T16:32:41.591Z,9.90
2022-11-13T16:35:12.515Z,9.68
2022-11-13T16:37:40.062Z,10.40
2022-11-13T16:40:15.939Z,10.07
2022-11-13T16:42:43.418Z,9.52
2022-11-13T16:45:10.987Z,9.73
2022-11-13T16:47:38.441Z,10.35
2022-11-13T16:50:11.087Z,9.95
2022-11-13T16:52:38.563Z,9.93
2022-11-13T16:55:06.839Z,10.43
2022-11-13T16:57:35.766Z,11.50
2022-11-13T17:00:03.406Z,9.55
2022-11-13T17:02:30.918Z,11.13
2022-11-13T17:04:58.411Z,10.52
2022-11-13T17:07:25.976Z,10.75
2022-11-13T17:10:16.655Z,10.63
2022-11-13T17:12:43.240Z,10.82
2022-11-13T17:15:11.339Z,10.45
2022-11-13T17:17:38.821Z,11.45
2022-11-13T17:20:06.731Z,11.10
2022-11-13T17:22:34.234Z,10.90
2022-11-13T17:25:01.753Z,11.77
2022-11-13T17:27:29.240Z,12.35
2022-11-13T17:29:58.100Z,11.90
2022-11-13T17:32:25.582Z,11.98
2022-11-13T17:34:53.064Z,12.77
2022-11-13T17:37:24.913Z,12.55
2022-11-13T17:39:52.639Z,11.90
2022-11-13T17:42:20.211Z,12.50
2022-11-13T17:44:47.703Z,13.77
2022-11-13T17:47:16.625Z,13.45
2022-11-13T17:49:44.125Z,13.40
2022-11-13T17:52:11.563Z,14.65
2022-11-13T17:54:39.021Z,13.57
2022-11-13T17:57:10.022Z,13.60
2022-11-13T17:59:37.496Z,14.63
2022-11-13T18:02:05.177Z,13.40
2022-11-13T18:04:34.107Z,14.07
2022-11-13T18:07:01.597Z,13.10
2022-11-13T18:09:29.123Z,13.98
2022-11-13T18:11:56.569Z,12.20
2022-11-13T18:14:24.001Z,13.80
2022-11-13T18:16:51.486Z,13.77
2022-11-13T18:19:18.906Z,12.80
2022-11-13T18:21:47.768Z,13.23
2022-11-13T18:24:16.695Z,12.38
2022-11-13T18:26:44.293Z,12.35
2022-11-13T18:29:12.042Z,12.68
2022-11-13T18:31:39.476Z,12.55
2022-11-13T18:34:07.663Z,13.32
2022-11-13T18:36:35.788Z,12.80
2022-11-13T18:39:05.642Z,14.10
2022-11-13T18:41:33.622Z,12.95
2022-11-13T18:44:01.198Z,12.50
2022-11-13T18:46:28.705Z,13.32
2022-11-13T18:48:56.504Z,13.32
2022-11-13T18:51:25.169Z,13.70
2022-11-13T18:53:53.028Z,13.80
2022-11-13T18:56:22.935Z,12.68
2022-11-13T18:58:51.068Z,12.40
2022-11-13T19:01:22.572Z,13.93
2022-11-13T19:04:16.137Z,12.85
2022-11-13T19:06:39.111Z,12.32
2022-11-13T19:09:07.749Z,12.52
2022-11-13T19:11:36.548Z,12.75
2022-11-13T19:14:04.099Z,12.55
2022-11-13T19:16:33.190Z,12.57
2022-11-13T19:19:03.166Z,12.20
2022-11-13T19:21:31.369Z,11.80
2022-11-13T19:23:59.702Z,12.80
2022-11-13T19:26:27.186Z,12.02
2022-11-13T19:28:56.146Z,11.52
2022-11-13T19:31:25.066Z,12.32
2022-11-13T19:33:54.991Z,11.63
2022-11-13T19:36:24.661Z,11.50
2022-11-13T19:38:52.585Z,11.80
2022-11-13T19:41:20.167Z,11.50
2022-11-13T19:43:48.531Z,10.80
2022-11-13T19:46:17.984Z,11.63
2022-11-13T19:48:46.413Z,11.40
2022-11-13T19:51:14.821Z,11.50
2022-11-13T19:53:46.057Z,11.52
2022-11-13T19:58:42.990Z,12.15
2022-11-13T20:01:11.505Z,13.13
2022-11-13T20:03:40.703Z,11.88
2022-11-13T20:06:08.719Z,12.10
2022-11-13T20:08:36.350Z,11.55
2022-11-13T20:11:04.281Z,14.32
2022-11-13T20:13:32.274Z,12.48
2022-11-13T20:15:59.762Z,12.25
2022-11-13T20:18:27.412Z,13.32
2022-11-13T20:20:56.580Z,14.20
2022-11-13T20:23:24.409Z,13.13
2022-11-13T20:25:52.361Z,14.27
2022-11-13T20:28:19.901Z,15.82
2022-11-13T20:30:47.357Z,14.15
2022-11-13T20:33:19.824Z,14.63
2022-11-13T20:35:53.890Z,16.13
2022-11-13T20:38:22.816Z,14.45
2022-11-13T20:40:51.149Z,15.00
2022-11-13T20:43:18.597Z,16.05
2022-11-13T20:45:46.056Z,16.65
2022-11-13T20:48:13.543Z,16.52
2022-11-13T20:50:41.013Z,16.33
2022-11-13T20:53:08.506Z,16.75
2022-11-13T20:55:37.361Z,16.92
2022-11-13T20:58:04.809Z,16.98
2022-11-13T21:00:32.733Z,16.70
2022-11-13T21:03:00.276Z,17.40
2022-11-13T21:05:27.866Z,17.48
2022-11-13T21:07:55.362Z,16.35
2022-11-13T21:10:22.901Z,16.48
2022-11-13T21:12:51.779Z,17.63
2022-11-13T21:15:19.306Z,16.73
2022-11-13T21:17:47.073Z,17.42
2022-11-13T21:20:14.637Z,16.45
2022-11-13T21:22:42.154Z,17.50
2022-11-13T21:25:09.808Z,16.98
2022-11-13T21:27:37.311Z,16.75
2022-11-13T21:30:06.894Z,17.42
2022-11-13T21:32:34.353Z,17.00
2022-11-13T21:35:01.850Z,17.27
2022-11-13T21:37:29.345Z,17.05
2022-11-13T21:39:56.804Z,17.77
2022-11-13T21:42:24.248Z,17.40
2022-11-13T21:44:51.685Z,18.27
2022-11-13T21:47:20.521Z,18.23
2022-11-13T21:49:47.996Z,18.92
2022-11-13T21:52:15.484Z,18.95
2022-11-13T21:54:42.929Z,18.08
2022-11-13T21:57:10.429Z,18.27
2022-11-13T21:59:37.859Z,18.10
2022-11-13T22:02:05.351Z,18.35
2022-11-13T22:04:34.190Z,17.80
2022-11-13T22:07:01.768Z,19.63
2022-11-13T22:09:29.266Z,18.02
2022-11-13T22:11:56.777Z,19.23
2022-11-13T22:14:24.282Z,19.95
2022-11-13T22:16:51.753Z,20.88
2022-11-13T22:19:25.301Z,19.10
2022-11-13T22:21:56.070Z,20.20
2022-11-13T22:24:23.538Z,21.45
2022-11-13T22:26:51.028Z,21.25
2022-11-13T22:29:18.520Z,20.00
2022-11-13T22:31:46.593Z,19.67
2022-11-13T22:34:14.063Z,20.60
2022-11-13T22:36:41.526Z,22.70
2022-11-13T22:39:10.489Z,20.83
2022-11-13T22:41:37.993Z,21.58
2022-11-13T22:44:06.624Z,21.65
2022-11-13T22:46:34.849Z,24.00
2022-11-13T22:49:02.878Z,23.25
2022-11-13T22:51:31.326Z,23.17
2022-11-13T22:53:59.772Z,23.58
2022-11-13T22:56:29.176Z,23.42
2022-11-13T22:58:57.200Z,25.30
2022-11-13T23:01:25.521Z,24.45
2022-11-13T23:03:53.454Z,24.80
2022-11-13T23:06:22.831Z,26.08
2022-11-13T23:08:50.745Z,24.98
2022-11-13T23:11:19.790Z,25.05
2022-11-13T23:13:50.251Z,25.88
2022-11-13T23:16:18.136Z,24.10
2022-11-13T23:18:45.958Z,23.75
2022-11-13T23:21:14.566Z,23.40
2022-11-13T23:23:42.153Z,23.90
2022-11-13T23:26:10.293Z,25.58
2022-11-13T23:28:38.082Z,26.13
2022-11-13T23:31:07.440Z,25.23
2022-11-13T23:33:35.311Z,25.95
2022-11-13T23:36:03.046Z,25.48
2022-11-13T23:38:30.881Z,24.98
2022-11-13T23:40:59.783Z,23.63
2022-11-13T23:43:53.872Z,24.05
2022-11-13T23:46:16.583Z,23.58
2022-11-13T23:48:44.059Z,22.98
2022-11-13T23:51:11.522Z,24.75
2022-11-13T23:53:39.072Z,23.27
2022-11-13T23:56:07.009Z,23.88
2022-11-13T23:58:34.951Z,24.13
